sensor_id;sensor_type;location;lat;lon;timestamp;temperature;humidity
20066;DHT22;10193;48.884;9.182;2022-12-07T00:01:50;6.40;75.50
20066;DHT22;10193;48.884;9.182;2022-12-07T00:04:18;6.40;75.50
20066;DHT22;10193;48.884;9.182;2022-12-07T00:06:50;6.40;75.50
20066;DHT22;10193;48.884;9.182;2022-12-07T00:09:17;6.30;75.40
20066;DHT22;10193;48.884;9.182;2022-12-07T00:11:46;6.40;75.40
20066;DHT22;10193;48.884;9.182;2022-12-07T00:14:15;6.30;75.40
20066;DHT22;10193;48.884;9.182;2022-12-07T00:16:43;6.30;75.50
20066;DHT22;10193;48.884;9.182;2022-12-07T00:19:10;6.30;75.50
20066;DHT22;10193;48.884;9.182;2022-12-07T00:21:37;6.30;76.40
20066;DHT22;10193;48.884;9.182;2022-12-07T00:24:06;6.30;75.50
20066;DHT22;10193;48.884;9.182;2022-12-07T00:26:34;6.30;75.50
20066;DHT22;10193;48.884;9.182;2022-12-07T00:29:03;6.30;75.50
20066;DHT22;10193;48.884;9.182;2022-12-07T00:31:31;6.30;75.50
20066;DHT22;10193;48.884;9.182;2022-12-07T00:34:00;6.30;75.50
20066;DHT22;10193;48.884;9.182;2022-12-07T00:36:27;6.30;75.40
20066;DHT22;10193;48.884;9.182;2022-12-07T00:38:55;6.30;75.40
20066;DHT22;10193;48.884;9.182;2022-12-07T00:41:26;6.30;75.40
20066;DHT22;10193;48.884;9.182;2022-12-07T00:43:53;6.30;75.40
20066;DHT22;10193;48.884;9.182;2022-12-07T00:46:21;6.30;75.40
20066;DHT22;10193;48.884;9.182;2022-12-07T00:48:48;6.20;75.30
20066;DHT22;10193;48.884;9.182;2022-12-07T00:51:17;6.20;75.30
20066;DHT22;10193;48.884;9.182;2022-12-07T00:53:45;6.20;75.30
20066;DHT22;10193;48.884;9.182;2022-12-07T00:56:13;6.20;75.30
20066;DHT22;10193;48.884;9.182;2022-12-07T00:58:41;6.20;75.40
20066;DHT22;10193;48.884;9.182;2022-12-07T01:01:09;6.20;75.30
20066;DHT22;10193;48.884;9.182;2022-12-07T01:03:37;6.20;75.30
20066;DHT22;10193;48.884;9.182;2022-12-07T01:06:04;6.20;75.30
20066;DHT22;10193;48.884;9.182;2022-12-07T01:08:31;6.20;75.30
20066;DHT22;10193;48.884;9.182;2022-12-07T01:10:59;6.20;75.30
20066;DHT22;10193;48.884;9.182;2022-12-07T01:13:26;6.10;75.20
20066;DHT22;10193;48.884;9.182;2022-12-07T01:15:57;6.10;75.30
20066;DHT22;10193;48.884;9.182;2022-12-07T01:18:25;6.10;75.30
20066;DHT22;10193;48.884;9.182;2022-12-07T01:20:58;6.10;75.30
20066;DHT22;10193;48.884;9.182;2022-12-07T01:23:24;6.10;75.30
20066;DHT22;10193;48.884;9.182;2022-12-07T01:25:54;6.10;75.30
20066;DHT22;10193;48.884;9.182;2022-12-07T01:28:21;6.10;75.30
20066;DHT22;10193;48.884;9.182;2022-12-07T01:30:56;6.10;75.30
20066;DHT22;10193;48.884;9.182;2022-12-07T01:33:23;6.10;75.30
20066;DHT22;10193;48.884;9.182;2022-12-07T01:35:50;6.10;75.30
20066;DHT22;10193;48.884;9.182;2022-12-07T01:38:16;6.10;75.30
20066;DHT22;10193;48.884;9.182;2022-12-07T01:40:43;6.10;75.30
20066;DHT22;10193;48.884;9.182;2022-12-07T01:43:15;6.10;75.20
20066;DHT22;10193;48.884;9.182;2022-12-07T01:45:44;6.10;75.20
20066;DHT22;10193;48.884;9.182;2022-12-07T01:48:14;6.10;75.20
20066;DHT22;10193;48.884;9.182;2022-12-07T01:50:43;6.10;75.20
20066;DHT22;10193;48.884;9.182;2022-12-07T01:53:11;6.10;75.30
20066;DHT22;10193;48.884;9.182;2022-12-07T01:55:42;6.10;75.30
20066;DHT22;10193;48.884;9.182;2022-12-07T01:58:11;6.10;75.30
20066;DHT22;10193;48.884;9.182;2022-12-07T02:00:38;6.10;75.40
20066;DHT22;10193;48.884;9.182;2022-12-07T02:03:08;6.10;75.30
20066;DHT22;10193;48.884;9.182;2022-12-07T02:05:40;6.10;75.30
20066;DHT22;10193;48.884;9.182;2022-12-07T02:08:07;6.10;75.20
20066;DHT22;10193;48.884;9.182;2022-12-07T02:10:34;6.10;75.20
20066;DHT22;10193;48.884;9.182;2022-12-07T02:13:04;6.10;75.30
20066;DHT22;10193;48.884;9.182;2022-12-07T02:15:38;6.10;75.30
20066;DHT22;10193;48.884;9.182;2022-12-07T02:18:13;6.10;75.30
20066;DHT22;10193;48.884;9.182;2022-12-07T02:20:49;6.10;75.30
20066;DHT22;10193;48.884;9.182;2022-12-07T02:23:36;6.10;75.20
20066;DHT22;10193;48.884;9.182;2022-12-07T02:26:35;6.10;75.20
20066;DHT22;10193;48.884;9.182;2022-12-07T02:29:14;6.10;75.20
20066;DHT22;10193;48.884;9.182;2022-12-07T02:31:46;6.10;75.30
20066;DHT22;10193;48.884;9.182;2022-12-07T02:34:20;6.10;75.30
20066;DHT22;10193;48.884;9.182;2022-12-07T02:36:52;6.00;75.20
20066;DHT22;10193;48.884;9.182;2022-12-07T02:39:27;6.00;75.20
20066;DHT22;10193;48.884;9.182;2022-12-07T02:41:58;6.00;75.20
20066;DHT22;10193;48.884;9.182;2022-12-07T02:44:29;6.10;75.40
20066;DHT22;10193;48.884;9.182;2022-12-07T02:47:01;6.00;75.20
20066;DHT22;10193;48.884;9.182;2022-12-07T02:49:29;6.00;75.30
20066;DHT22;10193;48.884;9.182;2022-12-07T02:51:56;6.00;75.40
20066;DHT22;10193;48.884;9.182;2022-12-07T02:54:23;6.00;75.40
20066;DHT22;10193;48.884;9.182;2022-12-07T02:56:52;6.00;75.40
20066;DHT22;10193;48.884;9.182;2022-12-07T02:59:31;6.00;75.40
20066;DHT22;10193;48.884;9.182;2022-12-07T03:02:10;6.00;75.40
20066;DHT22;10193;48.884;9.182;2022-12-07T03:04:49;6.00;75.30
20066;DHT22;10193;48.884;9.182;2022-12-07T03:07:24;6.00;75.30
20066;DHT22;10193;48.884;9.182;2022-12-07T03:09:57;6.00;75.20
20066;DHT22;10193;48.884;9.182;2022-12-07T03:12:29;6.00;75.20
20066;DHT22;10193;48.884;9.182;2022-12-07T03:15:03;6.00;75.20
20066;DHT22;10193;48.884;9.182;2022-12-07T03:17:35;6.00;75.20
20066;DHT22;10193;48.884;9.182;2022-12-07T03:20:05;5.90;75.00
20066;DHT22;10193;48.884;9.182;2022-12-07T03:22:35;5.90;75.10
20066;DHT22;10193;48.884;9.182;2022-12-07T03:25:07;5.90;75.10
20066;DHT22;10193;48.884;9.182;2022-12-07T03:27:39;5.80;75.00
20066;DHT22;10193;48.884;9.182;2022-12-07T03:30:13;5.90;75.10
20066;DHT22;10193;48.884;9.182;2022-12-07T03:32:44;5.80;75.10
20066;DHT22;10193;48.884;9.182;2022-12-07T03:35:16;5.80;75.20
20066;DHT22;10193;48.884;9.182;2022-12-07T03:37:47;5.80;75.20
20066;DHT22;10193;48.884;9.182;2022-12-07T03:40:19;5.80;75.20
20066;DHT22;10193;48.884;9.182;2022-12-07T03:42:49;5.80;75.10
20066;DHT22;10193;48.884;9.182;2022-12-07T03:45:18;5.80;75.10
20066;DHT22;10193;48.884;9.182;2022-12-07T03:47:50;5.80;75.10
20066;DHT22;10193;48.884;9.182;2022-12-07T03:50:25;5.80;75.00
20066;DHT22;10193;48.884;9.182;2022-12-07T03:52:58;5.70;74.90
20066;DHT22;10193;48.884;9.182;2022-12-07T03:55:28;5.70;74.90
20066;DHT22;10193;48.884;9.182;2022-12-07T03:57:59;5.70;74.90
20066;DHT22;10193;48.884;9.182;2022-12-07T04:00:29;5.70;75.00
20066;DHT22;10193;48.884;9.182;2022-12-07T04:02:56;5.70;75.00
20066;DHT22;10193;48.884;9.182;2022-12-07T04:05:23;5.70;75.10
20066;DHT22;10193;48.884;9.182;2022-12-07T04:07:49;5.70;75.00
20066;DHT22;10193;48.884;9.182;2022-12-07T04:10:16;5.60;74.80
20066;DHT22;10193;48.884;9.182;2022-12-07T04:12:43;5.60;74.80
20066;DHT22;10193;48.884;9.182;2022-12-07T04:15:10;5.60;74.80
20066;DHT22;10193;48.884;9.182;2022-12-07T04:17:38;5.60;75.00
20066;DHT22;10193;48.884;9.182;2022-12-07T04:20:06;5.60;75.10
20066;DHT22;10193;48.884;9.182;2022-12-07T04:22:33;5.50;75.20
20066;DHT22;10193;48.884;9.182;2022-12-07T04:25:00;5.50;75.30
20066;DHT22;10193;48.884;9.182;2022-12-07T04:27:27;5.60;75.40
20066;DHT22;10193;48.884;9.182;2022-12-07T04:29:53;5.60;75.40
20066;DHT22;10193;48.884;9.182;2022-12-07T04:32:21;5.60;75.50
20066;DHT22;10193;48.884;9.182;2022-12-07T04:34:49;5.60;75.40
20066;DHT22;10193;48.884;9.182;2022-12-07T04:37:16;5.60;75.40
20066;DHT22;10193;48.884;9.182;2022-12-07T04:39:43;5.60;75.30
20066;DHT22;10193;48.884;9.182;2022-12-07T04:42:11;5.60;75.10
20066;DHT22;10193;48.884;9.182;2022-12-07T04:44:38;5.60;75.00
20066;DHT22;10193;48.884;9.182;2022-12-07T04:47:05;5.60;75.00
20066;DHT22;10193;48.884;9.182;2022-12-07T04:49:32;5.60;74.80
20066;DHT22;10193;48.884;9.182;2022-12-07T04:52:00;5.60;74.60
20066;DHT22;10193;48.884;9.182;2022-12-07T04:54:26;5.60;74.60
20066;DHT22;10193;48.884;9.182;2022-12-07T04:56:53;5.60;74.60
20066;DHT22;10193;48.884;9.182;2022-12-07T04:59:20;5.60;74.60
20066;DHT22;10193;48.884;9.182;2022-12-07T05:01:46;5.60;74.60
20066;DHT22;10193;48.884;9.182;2022-12-07T05:04:13;5.50;74.50
20066;DHT22;10193;48.884;9.182;2022-12-07T05:06:41;5.50;74.60
20066;DHT22;10193;48.884;9.182;2022-12-07T05:09:09;5.50;74.60
20066;DHT22;10193;48.884;9.182;2022-12-07T05:11:36;5.50;74.50
20066;DHT22;10193;48.884;9.182;2022-12-07T05:14:09;5.50;74.50
20066;DHT22;10193;48.884;9.182;2022-12-07T05:16:36;5.50;74.40
20066;DHT22;10193;48.884;9.182;2022-12-07T05:19:03;5.50;74.30
20066;DHT22;10193;48.884;9.182;2022-12-07T05:21:30;5.50;74.30
20066;DHT22;10193;48.884;9.182;2022-12-07T05:23:57;5.50;74.30
20066;DHT22;10193;48.884;9.182;2022-12-07T05:26:25;5.40;74.20
20066;DHT22;10193;48.884;9.182;2022-12-07T05:28:52;5.40;74.30
20066;DHT22;10193;48.884;9.182;2022-12-07T05:31:18;5.40;74.40
20066;DHT22;10193;48.884;9.182;2022-12-07T05:33:45;5.40;74.50
20066;DHT22;10193;48.884;9.182;2022-12-07T05:36:12;5.40;74.60
20066;DHT22;10193;48.884;9.182;2022-12-07T05:38:38;5.40;74.80
20066;DHT22;10193;48.884;9.182;2022-12-07T05:41:06;5.40;74.80
20066;DHT22;10193;48.884;9.182;2022-12-07T05:43:54;5.40;74.90
20066;DHT22;10193;48.884;9.182;2022-12-07T05:46:21;5.40;74.90
20066;DHT22;10193;48.884;9.182;2022-12-07T05:48:48;5.40;75.00
20066;DHT22;10193;48.884;9.182;2022-12-07T05:51:14;5.30;74.90
20066;DHT22;10193;48.884;9.182;2022-12-07T05:53:41;5.40;74.90
20066;DHT22;10193;48.884;9.182;2022-12-07T05:56:08;5.40;74.90
20066;DHT22;10193;48.884;9.182;2022-12-07T05:58:35;5.40;74.90
20066;DHT22;10193;48.884;9.182;2022-12-07T06:01:20;5.40;75.00
20066;DHT22;10193;48.884;9.182;2022-12-07T06:03:47;5.40;74.90
20066;DHT22;10193;48.884;9.182;2022-12-07T06:06:13;5.40;75.00
20066;DHT22;10193;48.884;9.182;2022-12-07T06:08:40;5.40;74.90
20066;DHT22;10193;48.884;9.182;2022-12-07T06:11:07;5.40;75.00
20066;DHT22;10193;48.884;9.182;2022-12-07T06:13:51;5.40;75.00
20066;DHT22;10193;48.884;9.182;2022-12-07T06:16:17;5.40;75.00
20066;DHT22;10193;48.884;9.182;2022-12-07T06:18:45;5.40;75.00
20066;DHT22;10193;48.884;9.182;2022-12-07T06:21:12;5.40;75.00
20066;DHT22;10193;48.884;9.182;2022-12-07T06:23:39;5.40;75.00
20066;DHT22;10193;48.884;9.182;2022-12-07T06:26:07;5.50;75.10
20066;DHT22;10193;48.884;9.182;2022-12-07T06:28:33;5.50;75.00
20066;DHT22;10193;48.884;9.182;2022-12-07T06:31:01;5.50;74.90
20066;DHT22;10193;48.884;9.182;2022-12-07T06:33:29;5.40;74.70
20066;DHT22;10193;48.884;9.182;2022-12-07T06:35:57;5.50;74.80
20066;DHT22;10193;48.884;9.182;2022-12-07T06:38:23;5.50;74.70
20066;DHT22;10193;48.884;9.182;2022-12-07T06:40:50;5.50;74.60
20066;DHT22;10193;48.884;9.182;2022-12-07T06:43:17;5.50;74.60
20066;DHT22;10193;48.884;9.182;2022-12-07T06:45:43;5.50;74.50
20066;DHT22;10193;48.884;9.182;2022-12-07T06:48:10;5.50;74.40
20066;DHT22;10193;48.884;9.182;2022-12-07T06:50:37;5.50;74.40
20066;DHT22;10193;48.884;9.182;2022-12-07T06:53:05;5.50;74.40
20066;DHT22;10193;48.884;9.182;2022-12-07T06:55:31;5.40;74.20
20066;DHT22;10193;48.884;9.182;2022-12-07T06:57:58;5.50;74.30
20066;DHT22;10193;48.884;9.182;2022-12-07T07:00:25;5.50;74.30
20066;DHT22;10193;48.884;9.182;2022-12-07T07:02:51;5.50;74.10
20066;DHT22;10193;48.884;9.182;2022-12-07T07:05:18;5.50;74.10
20066;DHT22;10193;48.884;9.182;2022-12-07T07:07:46;5.40;74.00
20066;DHT22;10193;48.884;9.182;2022-12-07T07:10:14;5.50;74.10
20066;DHT22;10193;48.884;9.182;2022-12-07T07:12:41;5.50;74.10
20066;DHT22;10193;48.884;9.182;2022-12-07T07:15:09;5.50;74.20
20066;DHT22;10193;48.884;9.182;2022-12-07T07:17:37;5.50;74.20
20066;DHT22;10193;48.884;9.182;2022-12-07T07:20:04;5.50;74.10
20066;DHT22;10193;48.884;9.182;2022-12-07T07:22:31;5.50;74.20
20066;DHT22;10193;48.884;9.182;2022-12-07T07:24:58;5.50;74.10
20066;DHT22;10193;48.884;9.182;2022-12-07T07:27:26;5.50;74.20
20066;DHT22;10193;48.884;9.182;2022-12-07T07:29:52;5.50;74.20
20066;DHT22;10193;48.884;9.182;2022-12-07T07:32:19;5.50;74.10
20066;DHT22;10193;48.884;9.182;2022-12-07T07:34:47;5.60;74.30
20066;DHT22;10193;48.884;9.182;2022-12-07T07:37:14;5.60;74.30
20066;DHT22;10193;48.884;9.182;2022-12-07T07:39:40;5.60;74.30
20066;DHT22;10193;48.884;9.182;2022-12-07T07:42:07;5.60;74.20
20066;DHT22;10193;48.884;9.182;2022-12-07T07:44:35;5.60;74.20
20066;DHT22;10193;48.884;9.182;2022-12-07T07:47:02;5.60;74.20
20066;DHT22;10193;48.884;9.182;2022-12-07T07:49:29;5.70;74.40
20066;DHT22;10193;48.884;9.182;2022-12-07T07:51:56;5.70;74.30
20066;DHT22;10193;48.884;9.182;2022-12-07T07:54:22;5.70;74.20
20066;DHT22;10193;48.884;9.182;2022-12-07T07:56:49;5.80;74.30
20066;DHT22;10193;48.884;9.182;2022-12-07T07:59:16;5.80;74.30
20066;DHT22;10193;48.884;9.182;2022-12-07T08:01:44;5.80;74.30
20066;DHT22;10193;48.884;9.182;2022-12-07T08:04:10;5.80;74.30
20066;DHT22;10193;48.884;9.182;2022-12-07T08:06:37;5.90;74.40
20066;DHT22;10193;48.884;9.182;2022-12-07T08:09:04;5.90;74.30
20066;DHT22;10193;48.884;9.182;2022-12-07T08:11:31;5.90;74.40
20066;DHT22;10193;48.884;9.182;2022-12-07T08:13:58;5.90;74.40
20066;DHT22;10193;48.884;9.182;2022-12-07T08:16:25;6.00;74.50
20066;DHT22;10193;48.884;9.182;2022-12-07T08:18:53;6.00;74.50
20066;DHT22;10193;48.884;9.182;2022-12-07T08:21:20;6.00;74.30
20066;DHT22;10193;48.884;9.182;2022-12-07T08:23:46;6.00;74.30
20066;DHT22;10193;48.884;9.182;2022-12-07T08:26:15;6.10;74.40
20066;DHT22;10193;48.884;9.182;2022-12-07T08:28:42;6.10;74.50
20066;DHT22;10193;48.884;9.182;2022-12-07T08:31:12;6.10;74.50
20066;DHT22;10193;48.884;9.182;2022-12-07T08:33:39;6.20;74.60
20066;DHT22;10193;48.884;9.182;2022-12-07T08:36:10;6.20;74.50
20066;DHT22;10193;48.884;9.182;2022-12-07T08:38:38;6.30;74.40
20066;DHT22;10193;48.884;9.182;2022-12-07T08:41:05;6.30;74.50
20066;DHT22;10193;48.884;9.182;2022-12-07T08:43:33;6.30;74.40
20066;DHT22;10193;48.884;9.182;2022-12-07T08:46:06;6.40;74.50
20066;DHT22;10193;48.884;9.182;2022-12-07T08:48:36;6.40;74.40
20066;DHT22;10193;48.884;9.182;2022-12-07T08:51:03;6.50;74.50
20066;DHT22;10193;48.884;9.182;2022-12-07T08:53:32;6.50;74.60
20066;DHT22;10193;48.884;9.182;2022-12-07T08:56:00;6.60;74.60
20066;DHT22;10193;48.884;9.182;2022-12-07T08:58:27;6.60;74.60
20066;DHT22;10193;48.884;9.182;2022-12-07T09:00:54;6.70;74.70
20066;DHT22;10193;48.884;9.182;2022-12-07T09:03:21;6.70;74.70
20066;DHT22;10193;48.884;9.182;2022-12-07T09:05:47;6.80;74.80
20066;DHT22;10193;48.884;9.182;2022-12-07T09:08:14;6.80;74.80
20066;DHT22;10193;48.884;9.182;2022-12-07T09:10:42;6.90;74.80
20066;DHT22;10193;48.884;9.182;2022-12-07T09:13:09;6.90;74.80
20066;DHT22;10193;48.884;9.182;2022-12-07T09:15:36;7.00;74.80
20066;DHT22;10193;48.884;9.182;2022-12-07T09:18:02;7.00;74.50
20066;DHT22;10193;48.884;9.182;2022-12-07T09:20:29;7.10;74.40
20066;DHT22;10193;48.884;9.182;2022-12-07T09:22:56;7.10;74.30
20066;DHT22;10193;48.884;9.182;2022-12-07T09:25:22;7.20;74.30
20066;DHT22;10193;48.884;9.182;2022-12-07T09:27:56;7.20;74.20
20066;DHT22;10193;48.884;9.182;2022-12-07T09:30:23;7.20;73.80
20066;DHT22;10193;48.884;9.182;2022-12-07T09:32:51;7.30;74.10
20066;DHT22;10193;48.884;9.182;2022-12-07T09:35:18;7.30;74.10
20066;DHT22;10193;48.884;9.182;2022-12-07T09:37:45;7.40;73.90
20066;DHT22;10193;48.884;9.182;2022-12-07T09:40:13;7.40;73.90
20066;DHT22;10193;48.884;9.182;2022-12-07T09:42:44;7.50;74.00
20066;DHT22;10193;48.884;9.182;2022-12-07T09:45:15;7.50;73.80
20066;DHT22;10193;48.884;9.182;2022-12-07T09:47:42;7.60;73.80
20066;DHT22;10193;48.884;9.182;2022-12-07T09:50:14;7.60;73.60
20066;DHT22;10193;48.884;9.182;2022-12-07T09:52:41;7.60;73.20
20066;DHT22;10193;48.884;9.182;2022-12-07T09:55:11;7.60;73.10
20066;DHT22;10193;48.884;9.182;2022-12-07T09:57:38;7.60;72.80
20066;DHT22;10193;48.884;9.182;2022-12-07T10:00:10;7.60;72.90
20066;DHT22;10193;48.884;9.182;2022-12-07T10:02:41;7.60;72.80
20066;DHT22;10193;48.884;9.182;2022-12-07T10:05:21;7.60;72.80
20066;DHT22;10193;48.884;9.182;2022-12-07T10:07:48;7.60;72.90
20066;DHT22;10193;48.884;9.182;2022-12-07T10:10:19;7.60;72.80
20066;DHT22;10193;48.884;9.182;2022-12-07T10:12:55;7.60;72.80
20066;DHT22;10193;48.884;9.182;2022-12-07T10:15:22;7.60;72.60
20066;DHT22;10193;48.884;9.182;2022-12-07T10:17:51;7.60;72.60
20066;DHT22;10193;48.884;9.182;2022-12-07T10:20:22;7.60;72.50
20066;DHT22;10193;48.884;9.182;2022-12-07T10:22:57;7.60;72.50
20066;DHT22;10193;48.884;9.182;2022-12-07T10:25:28;7.50;72.20
20066;DHT22;10193;48.884;9.182;2022-12-07T10:28:00;7.50;72.50
20066;DHT22;10193;48.884;9.182;2022-12-07T10:30:27;7.50;72.60
20066;DHT22;10193;48.884;9.182;2022-12-07T10:32:55;7.50;72.60
20066;DHT22;10193;48.884;9.182;2022-12-07T10:35:25;7.50;72.60
20066;DHT22;10193;48.884;9.182;2022-12-07T10:37:54;7.50;72.70
20066;DHT22;10193;48.884;9.182;2022-12-07T10:40:28;7.50;72.70
20066;DHT22;10193;48.884;9.182;2022-12-07T10:43:03;7.50;72.70
20066;DHT22;10193;48.884;9.182;2022-12-07T10:45:30;7.50;72.70
20066;DHT22;10193;48.884;9.182;2022-12-07T10:48:02;7.50;72.70
20066;DHT22;10193;48.884;9.182;2022-12-07T10:50:45;7.50;73.00
20066;DHT22;10193;48.884;9.182;2022-12-07T10:53:31;7.50;73.00
20066;DHT22;10193;48.884;9.182;2022-12-07T10:56:26;7.50;73.00
20066;DHT22;10193;48.884;9.182;2022-12-07T10:59:09;7.50;72.70
20066;DHT22;10193;48.884;9.182;2022-12-07T11:01:43;7.50;72.80
20066;DHT22;10193;48.884;9.182;2022-12-07T11:04:24;7.60;73.10
20066;DHT22;10193;48.884;9.182;2022-12-07T11:06:59;7.60;73.10
20066;DHT22;10193;48.884;9.182;2022-12-07T11:09:50;7.60;73.10
20066;DHT22;10193;48.884;9.182;2022-12-07T11:12:26;7.60;72.80
20066;DHT22;10193;48.884;9.182;2022-12-07T11:14:58;7.60;72.80
20066;DHT22;10193;48.884;9.182;2022-12-07T11:17:35;7.60;72.80
20066;DHT22;10193;48.884;9.182;2022-12-07T11:20:15;7.60;72.70
20066;DHT22;10193;48.884;9.182;2022-12-07T11:22:51;7.60;72.50
20066;DHT22;10193;48.884;9.182;2022-12-07T11:25:26;7.50;72.30
20066;DHT22;10193;48.884;9.182;2022-12-07T11:28:06;7.50;72.20
20066;DHT22;10193;48.884;9.182;2022-12-07T11:30:40;7.50;72.80
20066;DHT22;10193;48.884;9.182;2022-12-07T11:33:16;7.40;71.90
20066;DHT22;10193;48.884;9.182;2022-12-07T11:35:53;7.40;72.10
20066;DHT22;10193;48.884;9.182;2022-12-07T11:38:24;7.40;72.10
20066;DHT22;10193;48.884;9.182;2022-12-07T11:40:58;7.30;72.20
20066;DHT22;10193;48.884;9.182;2022-12-07T11:43:49;7.30;72.50
20066;DHT22;10193;48.884;9.182;2022-12-07T11:46:17;7.30;72.80
20066;DHT22;10193;48.884;9.182;2022-12-07T11:48:47;7.30;72.90
20066;DHT22;10193;48.884;9.182;2022-12-07T11:51:19;7.30;72.90
20066;DHT22;10193;48.884;9.182;2022-12-07T11:53:51;7.30;73.10
20066;DHT22;10193;48.884;9.182;2022-12-07T11:56:21;7.30;73.20
20066;DHT22;10193;48.884;9.182;2022-12-07T11:58:53;7.30;73.30
20066;DHT22;10193;48.884;9.182;2022-12-07T12:01:32;7.40;73.40
20066;DHT22;10193;48.884;9.182;2022-12-07T12:04:07;7.40;73.50
20066;DHT22;10193;48.884;9.182;2022-12-07T12:06:43;7.50;73.60
20066;DHT22;10193;48.884;9.182;2022-12-07T12:09:13;7.50;73.40
20066;DHT22;10193;48.884;9.182;2022-12-07T12:11:55;7.60;73.40
20066;DHT22;10193;48.884;9.182;2022-12-07T12:14:35;7.60;73.20
20066;DHT22;10193;48.884;9.182;2022-12-07T12:17:40;7.60;73.30
20066;DHT22;10193;48.884;9.182;2022-12-07T12:20:20;7.60;72.80
20066;DHT22;10193;48.884;9.182;2022-12-07T12:22:52;7.70;73.30
20066;DHT22;10193;48.884;9.182;2022-12-07T12:25:22;7.70;73.20
20066;DHT22;10193;48.884;9.182;2022-12-07T12:27:50;7.80;73.00
20066;DHT22;10193;48.884;9.182;2022-12-07T12:30:31;7.80;73.00
20066;DHT22;10193;48.884;9.182;2022-12-07T12:33:04;7.80;72.60
20066;DHT22;10193;48.884;9.182;2022-12-07T12:35:33;7.80;72.50
20066;DHT22;10193;48.884;9.182;2022-12-07T12:38:31;7.80;72.50
20066;DHT22;10193;48.884;9.182;2022-12-07T12:40:59;7.70;72.00
20066;DHT22;10193;48.884;9.182;2022-12-07T12:43:43;7.70;72.10
20066;DHT22;10193;48.884;9.182;2022-12-07T12:49:35;7.60;71.90
20066;DHT22;10193;48.884;9.182;2022-12-07T12:55:17;7.50;71.80
20066;DHT22;10193;48.884;9.182;2022-12-07T12:57:47;7.50;72.30
20066;DHT22;10193;48.884;9.182;2022-12-07T13:00:19;7.60;72.70
20066;DHT22;10193;48.884;9.182;2022-12-07T13:02:50;7.60;72.70
20066;DHT22;10193;48.884;9.182;2022-12-07T13:05:19;7.60;72.80
20066;DHT22;10193;48.884;9.182;2022-12-07T13:08:00;7.60;72.80
20066;DHT22;10193;48.884;9.182;2022-12-07T13:10:47;7.60;72.40
20066;DHT22;10193;48.884;9.182;2022-12-07T13:13:32;7.60;72.20
20066;DHT22;10193;48.884;9.182;2022-12-07T13:16:39;7.60;72.00
20066;DHT22;10193;48.884;9.182;2022-12-07T13:22:43;7.50;71.90
20066;DHT22;10193;48.884;9.182;2022-12-07T13:25:12;7.50;72.00
20066;DHT22;10193;48.884;9.182;2022-12-07T13:27:50;7.40;71.90
20066;DHT22;10193;48.884;9.182;2022-12-07T13:30:21;7.40;71.90
20066;DHT22;10193;48.884;9.182;2022-12-07T13:32:51;7.40;72.20
20066;DHT22;10193;48.884;9.182;2022-12-07T13:35:29;7.40;72.20
20066;DHT22;10193;48.884;9.182;2022-12-07T13:37:56;7.40;72.30
20066;DHT22;10193;48.884;9.182;2022-12-07T13:40:23;7.40;72.50
20066;DHT22;10193;48.884;9.182;2022-12-07T13:42:58;7.40;72.50
20066;DHT22;10193;48.884;9.182;2022-12-07T13:45:27;7.40;72.70
20066;DHT22;10193;48.884;9.182;2022-12-07T13:48:12;7.50;72.80
20066;DHT22;10193;48.884;9.182;2022-12-07T13:50:40;7.50;72.70
20066;DHT22;10193;48.884;9.182;2022-12-07T13:53:12;7.60;72.70
20066;DHT22;10193;48.884;9.182;2022-12-07T13:55:44;7.50;72.50
20066;DHT22;10193;48.884;9.182;2022-12-07T13:58:13;7.60;72.60
20066;DHT22;10193;48.884;9.182;2022-12-07T14:00:40;7.60;72.50
20066;DHT22;10193;48.884;9.182;2022-12-07T14:03:27;7.60;73.30
20066;DHT22;10193;48.884;9.182;2022-12-07T14:06:15;7.60;72.10
20066;DHT22;10193;48.884;9.182;2022-12-07T14:08:43;7.60;72.00
20066;DHT22;10193;48.884;9.182;2022-12-07T14:11:14;7.60;72.00
20066;DHT22;10193;48.884;9.182;2022-12-07T14:13:51;7.50;71.80
20066;DHT22;10193;48.884;9.182;2022-12-07T14:16:25;7.50;71.60
20066;DHT22;10193;48.884;9.182;2022-12-07T14:18:53;7.50;71.80
20066;DHT22;10193;48.884;9.182;2022-12-07T14:21:22;7.40;71.80
20066;DHT22;10193;48.884;9.182;2022-12-07T14:24:10;7.40;71.90
20066;DHT22;10193;48.884;9.182;2022-12-07T14:26:38;7.40;71.70
20066;DHT22;10193;48.884;9.182;2022-12-07T14:29:32;7.40;71.90
20066;DHT22;10193;48.884;9.182;2022-12-07T14:32:17;7.40;71.70
20066;DHT22;10193;48.884;9.182;2022-12-07T14:34:56;7.30;71.70
20066;DHT22;10193;48.884;9.182;2022-12-07T14:37:24;7.30;71.70
20066;DHT22;10193;48.884;9.182;2022-12-07T14:39:51;7.30;71.50
20066;DHT22;10193;48.884;9.182;2022-12-07T14:42:17;7.30;71.40
20066;DHT22;10193;48.884;9.182;2022-12-07T14:44:45;7.30;71.50
20066;DHT22;10193;48.884;9.182;2022-12-07T14:47:12;7.30;71.20
20066;DHT22;10193;48.884;9.182;2022-12-07T14:49:39;7.20;71.30
20066;DHT22;10193;48.884;9.182;2022-12-07T14:52:08;7.20;71.30
20066;DHT22;10193;48.884;9.182;2022-12-07T14:54:36;7.20;71.40
20066;DHT22;10193;48.884;9.182;2022-12-07T14:57:03;7.10;71.30
20066;DHT22;10193;48.884;9.182;2022-12-07T14:59:29;7.10;71.30
20066;DHT22;10193;48.884;9.182;2022-12-07T15:01:57;7.10;71.30
20066;DHT22;10193;48.884;9.182;2022-12-07T15:04:24;7.00;71.10
20066;DHT22;10193;48.884;9.182;2022-12-07T15:06:57;7.00;71.20
20066;DHT22;10193;48.884;9.182;2022-12-07T15:09:24;7.00;71.10
20066;DHT22;10193;48.884;9.182;2022-12-07T15:11:51;7.00;71.10
20066;DHT22;10193;48.884;9.182;2022-12-07T15:14:18;6.90;71.00
20066;DHT22;10193;48.884;9.182;2022-12-07T15:16:45;6.90;71.10
20066;DHT22;10193;48.884;9.182;2022-12-07T15:19:15;6.80;71.10
20066;DHT22;10193;48.884;9.182;2022-12-07T15:21:42;6.70;71.10
20066;DHT22;10193;48.884;9.182;2022-12-07T15:24:10;6.70;71.20
20066;DHT22;10193;48.884;9.182;2022-12-07T15:26:38;6.70;71.30
20066;DHT22;10193;48.884;9.182;2022-12-07T15:29:05;6.70;71.50
20066;DHT22;10193;48.884;9.182;2022-12-07T15:31:33;6.70;71.60
20066;DHT22;10193;48.884;9.182;2022-12-07T15:34:00;6.60;71.70
20066;DHT22;10193;48.884;9.182;2022-12-07T15:36:30;6.60;71.70
20066;DHT22;10193;48.884;9.182;2022-12-07T15:38:57;6.60;71.80
20066;DHT22;10193;48.884;9.182;2022-12-07T15:41:23;6.60;71.70
20066;DHT22;10193;48.884;9.182;2022-12-07T15:43:50;6.60;71.70
20066;DHT22;10193;48.884;9.182;2022-12-07T15:46:36;6.60;71.70
20066;DHT22;10193;48.884;9.182;2022-12-07T15:49:04;6.60;71.70
20066;DHT22;10193;48.884;9.182;2022-12-07T15:51:32;6.60;71.70
20066;DHT22;10193;48.884;9.182;2022-12-07T15:53:59;6.50;71.60
20066;DHT22;10193;48.884;9.182;2022-12-07T15:56:25;6.60;71.70
20066;DHT22;10193;48.884;9.182;2022-12-07T15:58:52;6.50;71.60
20066;DHT22;10193;48.884;9.182;2022-12-07T16:01:19;6.50;71.70
20066;DHT22;10193;48.884;9.182;2022-12-07T16:03:46;6.50;71.60
20066;DHT22;10193;48.884;9.182;2022-12-07T16:06:15;6.40;71.60
20066;DHT22;10193;48.884;9.182;2022-12-07T16:08:44;6.40;71.60
20066;DHT22;10193;48.884;9.182;2022-12-07T16:11:11;6.40;71.60
20066;DHT22;10193;48.884;9.182;2022-12-07T16:13:38;6.40;71.60
20066;DHT22;10193;48.884;9.182;2022-12-07T16:16:06;6.40;71.60